createdAt,value
2022-11-15T00:00:33.851Z,9.00
2022-11-15T00:05:27.917Z,9.00
2022-11-15T00:10:23.313Z,9.10
2022-11-15T00:17:49.070Z,9.20
2022-11-15T00:20:16.032Z,11.40
2022-11-15T00:30:05.283Z,9.50
2022-11-15T00:32:32.312Z,9.50
2022-11-15T00:35:00.527Z,9.60
2022-11-15T00:39:54.538Z,9.70
2022-11-15T00:52:11.673Z,9.90
2022-11-15T01:04:27.163Z,10.00
2022-11-15T01:09:23.144Z,10.10
2022-11-15T01:11:50.003Z,10.20
2022-11-15T01:16:51.027Z,10.30
2022-11-15T01:19:17.832Z,10.30
2022-11-15T01:24:13.934Z,10.50
2022-11-15T01:26:42.469Z,10.50
2022-11-15T01:38:59.359Z,10.70
2022-11-15T01:41:28.410Z,10.80
2022-11-15T01:43:58.385Z,11.90
2022-11-15T01:46:27.932Z,10.80
2022-11-15T01:48:58.561Z,11.20
2022-11-15T01:51:30.885Z,10.80
2022-11-15T01:54:03.587Z,10.90
2022-11-15T01:56:33.079Z,10.90
2022-11-15T01:59:05.243Z,11.00
2022-11-15T02:01:34.556Z,11.00
2022-11-15T02:04:07.701Z,12.00
2022-11-15T02:06:35.739Z,11.10
2022-11-15T02:11:30.321Z,11.10
2022-11-15T02:13:59.200Z,11.10
2022-11-15T02:16:34.284Z,11.10
2022-11-15T02:19:13.441Z,11.20
2022-11-15T02:21:45.456Z,11.20
2022-11-15T02:24:35.628Z,11.20
2022-11-15T02:27:30.091Z,11.10
2022-11-15T02:30:24.914Z,11.10
2022-11-15T02:32:55.638Z,11.10
2022-11-15T02:35:35.324Z,11.00
2022-11-15T02:38:09.523Z,11.00
2022-11-15T02:40:42.708Z,11.00
2022-11-15T02:43:30.127Z,11.10
2022-11-15T02:46:05.551Z,11.80
2022-11-15T02:48:33.309Z,11.10
2022-11-15T02:51:01.392Z,10.90
2022-11-15T02:53:29.215Z,10.90
2022-11-15T02:55:57.514Z,11.80
2022-11-15T02:58:54.096Z,11.00
2022-11-15T03:01:37.312Z,11.10
2022-11-15T03:04:16.427Z,11.10
2022-11-15T03:06:49.681Z,11.10
2022-11-15T03:09:29.994Z,11.10
2022-11-15T03:12:04.058Z,11.10
2022-11-15T03:14:34.042Z,11.00
2022-11-15T03:17:03.860Z,11.10
2022-11-15T03:19:36.338Z,11.10
2022-11-15T03:22:08.195Z,11.10
2022-11-15T03:24:38.605Z,11.20
2022-11-15T03:27:07.662Z,11.20
2022-11-15T03:29:36.946Z,11.20
2022-11-15T03:32:10.453Z,11.30
2022-11-15T03:34:41.884Z,11.40
2022-11-15T03:37:11.236Z,11.40
2022-11-15T03:39:38.093Z,11.40
2022-11-15T03:42:14.520Z,11.50
2022-11-15T03:44:47.049Z,11.50
2022-11-15T03:47:21.087Z,11.60
2022-11-15T03:49:53.214Z,11.50
2022-11-15T03:52:21.752Z,11.60
2022-11-15T03:54:50.815Z,11.50
2022-11-15T03:57:18.083Z,14.00
2022-11-15T04:02:13.188Z,11.50
2022-11-15T04:04:41.400Z,11.50
2022-11-15T04:12:31.672Z,11.40
2022-11-15T04:15:08.949Z,11.40
2022-11-15T04:17:40.815Z,11.40
2022-11-15T04:20:30.672Z,11.40
2022-11-15T04:23:17.269Z,11.50
2022-11-15T04:25:45.007Z,11.50
2022-11-15T04:28:12.263Z,11.60
2022-11-15T04:30:39.697Z,11.60
2022-11-15T04:35:35.359Z,11.60
2022-11-15T04:38:04.356Z,11.60
2022-11-15T04:40:31.386Z,11.50
2022-11-15T04:45:31.327Z,11.40
2022-11-15T04:47:58.331Z,11.50
2022-11-15T04:50:25.173Z,11.40
2022-11-15T04:52:54.975Z,11.40
2022-11-15T04:57:57.567Z,11.50
2022-11-15T05:03:10.743Z,11.50
2022-11-15T05:05:37.916Z,11.50
2022-11-15T05:08:06.204Z,11.60
2022-11-15T05:15:27.277Z,11.60
2022-11-15T05:17:59.232Z,11.60
2022-11-15T05:20:26.046Z,11.60
2022-11-15T05:22:54.564Z,11.60
2022-11-15T05:25:22.778Z,11.60
2022-11-15T05:32:44.745Z,11.60
2022-11-15T05:35:18.201Z,11.60
2022-11-15T05:42:41.141Z,11.60
2022-11-15T05:45:10.326Z,13.30
2022-11-15T05:47:39.995Z,11.60
2022-11-15T05:50:07.957Z,11.60
2022-11-15T05:52:37.990Z,11.70
2022-11-15T05:55:06.613Z,11.60
2022-11-15T06:00:02.839Z,11.60
2022-11-15T06:04:56.916Z,11.60
2022-11-15T06:17:13.656Z,11.60
2022-11-15T06:34:25.066Z,11.60
2022-11-15T06:49:09.732Z,11.70
2022-11-15T06:51:38.159Z,11.70
2022-11-15T06:54:05.121Z,12.30
2022-11-15T06:56:31.892Z,11.60
2022-11-15T06:58:58.768Z,11.60
2022-11-15T07:01:25.629Z,11.60
2022-11-15T07:03:52.468Z,11.70
2022-11-15T07:06:19.281Z,11.80
2022-11-15T07:08:47.499Z,13.20
2022-11-15T07:16:11.284Z,11.90
2022-11-15T07:18:39.457Z,11.90
2022-11-15T07:21:07.554Z,11.90
2022-11-15T07:23:36.707Z,11.90
2022-11-15T07:26:05.387Z,12.20
2022-11-15T07:28:32.483Z,12.00
2022-11-15T07:31:02.329Z,12.00
2022-11-15T07:33:29.393Z,12.00
2022-11-15T07:36:00.296Z,12.00
2022-11-15T07:40:57.711Z,12.00
2022-11-15T07:43:26.087Z,12.00
2022-11-15T07:45:58.694Z,12.00
2022-11-15T07:48:27.369Z,12.00
2022-11-15T07:53:30.360Z,12.10
2022-11-15T07:55:57.435Z,12.10
2022-11-15T07:58:25.597Z,12.10
2022-11-15T08:00:52.434Z,12.10
2022-11-15T08:05:52.206Z,12.30
2022-11-15T08:10:46.284Z,12.40
2022-11-15T08:15:42.933Z,12.40
2022-11-15T08:18:12.579Z,12.40
2022-11-15T08:20:39.646Z,12.40
2022-11-15T08:23:07.469Z,12.40
2022-11-15T08:25:35.730Z,12.30
2022-11-15T08:28:05.491Z,14.40
2022-11-15T08:30:37.470Z,12.30
2022-11-15T08:33:05.777Z,14.30
2022-11-15T08:47:53.928Z,12.30
2022-11-15T08:50:22.967Z,13.50
2022-11-15T08:52:50.061Z,12.30
2022-11-15T08:55:17.769Z,12.40
2022-11-15T09:00:13.494Z,12.40
2022-11-15T09:05:08.801Z,12.50
2022-11-15T09:07:37.151Z,12.60
2022-11-15T09:10:05.108Z,12.60
2022-11-15T09:12:32.346Z,12.60
2022-11-15T09:22:20.771Z,12.70
2022-11-15T09:24:48.979Z,14.30
2022-11-15T09:27:15.886Z,12.70
2022-11-15T09:29:42.728Z,12.80
2022-11-15T09:32:10.285Z,13.30
2022-11-15T09:34:37.182Z,13.50
2022-11-15T09:39:31.211Z,12.80
2022-11-15T09:42:13.164Z,12.90
2022-11-15T09:44:52.880Z,12.90
2022-11-15T09:47:43.933Z,12.90
2022-11-15T09:50:14.825Z,13.00
2022-11-15T09:52:45.428Z,13.00
2022-11-15T09:55:17.261Z,13.00
2022-11-15T09:57:53.321Z,13.10
2022-11-15T10:00:45.224Z,13.10
2022-11-15T10:03:12.177Z,13.10
2022-11-15T10:05:41.796Z,13.10
2022-11-15T10:08:28.694Z,13.10
2022-11-15T10:11:22.799Z,13.10
2022-11-15T10:13:49.491Z,13.20
2022-11-15T10:16:35.557Z,13.20
2022-11-15T10:19:08.217Z,13.20
2022-11-15T10:21:45.073Z,13.20
2022-11-15T10:24:13.738Z,13.30
2022-11-15T10:26:46.688Z,13.30
2022-11-15T10:29:19.446Z,13.40
2022-11-15T10:34:15.564Z,13.40
2022-11-15T10:36:50.083Z,13.50
2022-11-15T10:39:17.290Z,13.50
2022-11-15T10:41:44.384Z,13.50
2022-11-15T10:44:25.564Z,13.50
2022-11-15T10:47:22.619Z,13.40
2022-11-15T10:49:58.867Z,13.50
2022-11-15T10:52:26.711Z,13.70
2022-11-15T10:54:57.548Z,13.50
2022-11-15T10:57:28.111Z,13.50
2022-11-15T11:00:00.441Z,13.60
2022-11-15T11:02:34.556Z,13.60
2022-11-15T11:05:02.741Z,13.60
2022-11-15T11:07:31.499Z,13.70
2022-11-15T11:10:13.382Z,14.30
2022-11-15T11:15:19.444Z,13.70
2022-11-15T11:17:59.596Z,13.70
2022-11-15T11:20:34.682Z,13.80
2022-11-15T11:23:15.585Z,13.90
2022-11-15T11:25:52.664Z,15.20
2022-11-15T11:28:34.810Z,13.90
2022-11-15T11:31:15.741Z,14.00
2022-11-15T11:33:49.835Z,14.00
2022-11-15T11:36:25.677Z,14.50
2022-11-15T11:38:59.235Z,14.00
2022-11-15T11:41:43.643Z,14.00
2022-11-15T11:44:22.712Z,14.00
2022-11-15T11:46:56.970Z,14.00
2022-11-15T11:49:30.816Z,14.10
2022-11-15T11:52:04.491Z,14.10
2022-11-15T11:54:38.087Z,14.10
2022-11-15T11:57:12.457Z,14.10
2022-11-15T11:59:46.932Z,14.20
2022-11-15T12:02:22.013Z,14.10
2022-11-15T12:04:52.029Z,14.10
2022-11-15T12:07:21.595Z,14.40
2022-11-15T12:09:55.092Z,14.10
2022-11-15T12:12:28.583Z,14.10
2022-11-15T12:14:58.574Z,14.00
2022-11-15T12:17:27.954Z,14.00
2022-11-15T12:19:58.510Z,14.00
2022-11-15T12:22:34.808Z,14.00
2022-11-15T12:25:05.041Z,14.00
2022-11-15T12:27:38.440Z,14.10
2022-11-15T12:30:12.144Z,14.30
2022-11-15T12:32:49.958Z,14.10
2022-11-15T12:35:25.974Z,15.20
2022-11-15T12:37:56.000Z,14.20
2022-11-15T12:40:34.548Z,14.20
2022-11-15T12:43:26.892Z,14.10
2022-11-15T12:48:57.879Z,14.00
2022-11-15T12:52:03.238Z,14.70
2022-11-15T12:54:54.851Z,14.10
2022-11-15T12:57:42.678Z,14.10
2022-11-15T13:00:40.017Z,14.20
2022-11-15T13:03:25.804Z,14.10
2022-11-15T13:05:59.824Z,14.10
2022-11-15T13:08:51.532Z,14.00
2022-11-15T13:11:49.467Z,14.30
2022-11-15T13:14:42.934Z,13.90
2022-11-15T13:17:26.383Z,14.00
2022-11-15T13:19:59.782Z,13.90
2022-11-15T13:22:45.584Z,14.20
2022-11-15T13:25:20.085Z,13.90
2022-11-15T13:27:49.866Z,13.90
2022-11-15T13:30:21.629Z,13.90
2022-11-15T13:32:48.935Z,13.80
2022-11-15T13:35:22.257Z,14.50
2022-11-15T13:37:49.842Z,15.40
2022-11-15T13:40:25.466Z,15.30
2022-11-15T13:42:54.039Z,13.90
2022-11-15T13:45:21.408Z,13.90
2022-11-15T13:47:54.803Z,13.90
2022-11-15T13:50:26.073Z,16.00
2022-11-15T13:55:22.860Z,14.10
2022-11-15T13:57:52.384Z,14.10
2022-11-15T14:00:32.939Z,14.10
2022-11-15T14:03:07.468Z,14.10
2022-11-15T14:08:04.962Z,14.10
2022-11-15T14:10:33.643Z,14.80
2022-11-15T14:15:32.458Z,14.20
2022-11-15T14:20:33.572Z,14.20
2022-11-15T14:23:07.677Z,14.10
2022-11-15T14:34:46.675Z,14.20
2022-11-15T14:37:23.673Z,15.70
2022-11-15T14:39:51.702Z,14.20
2022-11-15T14:44:46.409Z,14.20
2022-11-15T14:52:31.525Z,14.00
2022-11-15T15:02:24.072Z,13.90
2022-11-15T15:04:51.552Z,13.80
2022-11-15T15:07:20.409Z,13.80
2022-11-15T15:12:19.275Z,13.80
2022-11-15T15:22:14.690Z,13.70
2022-11-15T15:24:43.004Z,13.60
2022-11-15T15:37:24.744Z,13.50
2022-11-15T15:39:54.188Z,13.50
2022-11-15T15:42:21.965Z,13.50
2022-11-15T15:47:19.516Z,13.40
2022-11-15T15:54:41.834Z,13.40
2022-11-15T15:57:13.785Z,13.40
2022-11-15T16:02:12.217Z,13.50
2022-11-15T16:12:20.714Z,13.60
2022-11-15T16:17:18.427Z,13.70
2022-11-15T16:24:39.662Z,13.70
2022-11-15T16:29:35.106Z,13.60
2022-11-15T16:39:30.730Z,13.60
2022-11-15T16:46:53.928Z,13.50
2022-11-15T16:49:21.371Z,13.50
2022-11-15T16:51:49.932Z,13.50
2022-11-15T16:59:16.769Z,13.40
2022-11-15T17:01:50.887Z,13.40
2022-11-15T17:04:22.574Z,13.40
2022-11-15T17:09:19.130Z,13.30
2022-11-15T17:19:13.428Z,13.20
2022-11-15T17:21:42.429Z,13.20
2022-11-15T17:24:09.883Z,14.10
2022-11-15T17:38:59.862Z,13.20
2022-11-15T17:41:27.944Z,13.20
2022-11-15T17:43:57.893Z,13.20
2022-11-15T17:46:24.641Z,13.70
2022-11-15T17:51:19.373Z,13.10
2022-11-15T17:53:48.475Z,13.00
2022-11-15T17:56:19.198Z,13.00
2022-11-15T17:58:48.659Z,12.90
2022-11-15T18:01:19.850Z,12.90
2022-11-15T18:03:47.423Z,13.00
2022-11-15T18:08:44.947Z,13.00
2022-11-15T18:11:13.741Z,13.00
2022-11-15T18:13:49.456Z,13.00
2022-11-15T18:16:21.212Z,12.90
2022-11-15T18:21:18.677Z,12.90
2022-11-15T18:26:15.790Z,12.80
2022-11-15T18:28:45.658Z,14.30
2022-11-15T18:31:13.305Z,13.70
2022-11-15T18:36:10.360Z,12.80
2022-11-15T18:38:37.330Z,12.80
2022-11-15T18:41:07.500Z,12.60
2022-11-15T18:46:05.022Z,12.50
2022-11-15T18:48:32.543Z,12.50
2022-11-15T18:51:05.353Z,12.50
2022-11-15T18:56:02.073Z,12.60
2022-11-15T18:58:30.774Z,12.60
2022-11-15T19:01:03.447Z,12.60
2022-11-15T19:03:34.861Z,12.60
2022-11-15T19:06:03.793Z,12.70
2022-11-15T19:11:04.295Z,12.70
2022-11-15T19:18:28.829Z,12.80
2022-11-15T19:20:56.985Z,12.80
2022-11-15T19:25:55.286Z,12.80
2022-11-15T19:30:49.326Z,12.70
2022-11-15T19:35:44.817Z,12.60
2022-11-15T19:38:11.848Z,12.70
2022-11-15T19:40:38.684Z,12.80
2022-11-15T19:50:27.351Z,12.70
2022-11-15T19:52:55.542Z,12.70
2022-11-15T20:00:17.721Z,12.70
2022-11-15T20:02:44.512Z,12.70
2022-11-15T20:05:17.058Z,13.60
2022-11-15T20:07:47.945Z,12.70
2022-11-15T20:10:19.696Z,12.70
2022-11-15T20:20:33.427Z,12.70
2022-11-15T20:23:03.422Z,12.70
2022-11-15T20:25:31.782Z,12.80
2022-11-15T20:27:58.578Z,12.70
2022-11-15T20:32:52.657Z,12.80
2022-11-15T20:42:43.701Z,12.90
2022-11-15T20:50:27.647Z,12.90
2022-11-15T20:52:52.632Z,13.00
2022-11-15T20:55:20.738Z,13.00
2022-11-15T20:57:48.990Z,13.00
2022-11-15T21:00:16.484Z,13.00
2022-11-15T21:10:24.451Z,13.10
2022-11-15T21:12:52.585Z,13.10
2022-11-15T21:15:19.420Z,13.10
2022-11-15T21:20:13.489Z,13.10
2022-11-15T21:25:08.605Z,13.20
2022-11-15T21:27:35.507Z,13.20
2022-11-15T21:30:04.858Z,13.10
2022-11-15T21:32:31.700Z,13.10
2022-11-15T21:47:16.881Z,13.10
2022-11-15T22:02:23.458Z,13.10
2022-11-15T22:04:50.371Z,13.00
2022-11-15T22:19:34.713Z,13.00
2022-11-15T22:24:28.989Z,13.00
2022-11-15T22:26:55.825Z,13.00
2022-11-15T22:37:13.096Z,13.00
2022-11-15T22:39:32.638Z,15.00
2022-11-15T22:44:26.675Z,12.90
2022-11-15T22:46:53.498Z,12.90
2022-11-15T22:49:20.335Z,12.90
2022-11-15T22:51:48.569Z,12.90
2022-11-15T23:04:04.571Z,13.00
2022-11-15T23:08:59.957Z,13.00
2022-11-15T23:11:45.183Z,13.00
2022-11-15T23:14:12.033Z,13.10
2022-11-15T23:19:08.336Z,13.00
2022-11-15T23:21:55.544Z,13.00
2022-11-15T23:24:24.393Z,13.00
2022-11-15T23:26:53.139Z,13.10
2022-11-15T23:29:22.853Z,13.00
2022-11-15T23:32:08.325Z,13.10
2022-11-15T23:34:40.135Z,13.10
2022-11-15T23:37:08.369Z,13.10
2022-11-15T23:39:36.621Z,13.10
2022-11-15T23:47:03.652Z,13.00
2022-11-15T23:49:30.472Z,13.00
2022-11-15T23:56:53.113Z,13.00
